sensor_id;sensor_type;location;lat;lon;timestamp;P1;durP1;ratioP1;P2;durP2;ratioP2
62030;SDS011;62035;52.094;5.112;2023-12-04T00:00:29;20.17;;;8.48;;
62030;SDS011;62035;52.094;5.112;2023-12-04T00:02:56;18.83;;;8.23;;
62030;SDS011;62035;52.094;5.112;2023-12-04T00:05:23;17.15;;;8.68;;
62030;SDS011;62035;52.094;5.112;2023-12-04T00:07:50;17.63;;;8.32;;
62030;SDS011;62035;52.094;5.112;2023-12-04T00:10:17;19.80;;;8.98;;
62030;SDS011;62035;52.094;5.112;2023-12-04T00:12:46;18.15;;;8.30;;
62030;SDS011;62035;52.094;5.112;2023-12-04T00:15:13;18.67;;;8.77;;
62030;SDS011;62035;52.094;5.112;2023-12-04T00:17:41;18.00;;;8.50;;
62030;SDS011;62035;52.094;5.112;2023-12-04T00:20:09;18.67;;;8.48;;
62030;SDS011;62035;52.094;5.112;2023-12-04T00:22:36;14.95;;;7.45;;
62030;SDS011;62035;52.094;5.112;2023-12-04T00:25:05;16.50;;;8.32;;
62030;SDS011;62035;52.094;5.112;2023-12-04T00:27:33;16.75;;;8.35;;
62030;SDS011;62035;52.094;5.112;2023-12-04T00:30:01;17.05;;;8.23;;
62030;SDS011;62035;52.094;5.112;2023-12-04T00:32:29;15.65;;;7.60;;
62030;SDS011;62035;52.094;5.112;2023-12-04T00:34:57;18.83;;;8.57;;
62030;SDS011;62035;52.094;5.112;2023-12-04T00:37:25;15.48;;;7.85;;
62030;SDS011;62035;52.094;5.112;2023-12-04T00:39:53;15.20;;;8.07;;
62030;SDS011;62035;52.094;5.112;2023-12-04T00:42:20;15.80;;;7.63;;
62030;SDS011;62035;52.094;5.112;2023-12-04T00:44:47;19.38;;;7.90;;
62030;SDS011;62035;52.094;5.112;2023-12-04T00:47:16;15.80;;;7.75;;
62030;SDS011;62035;52.094;5.112;2023-12-04T00:49:44;16.00;;;8.10;;
62030;SDS011;62035;52.094;5.112;2023-12-04T00:52:11;18.20;;;8.93;;
62030;SDS011;62035;52.094;5.112;2023-12-04T00:54:38;16.35;;;8.48;;
62030;SDS011;62035;52.094;5.112;2023-12-04T00:57:06;17.35;;;8.30;;
62030;SDS011;62035;52.094;5.112;2023-12-04T00:59:33;16.65;;;8.18;;
62030;SDS011;62035;52.094;5.112;2023-12-04T01:02:00;20.30;;;8.60;;
62030;SDS011;62035;52.094;5.112;2023-12-04T01:04:29;19.23;;;8.52;;
62030;SDS011;62035;52.094;5.112;2023-12-04T01:06:57;18.50;;;8.88;;
62030;SDS011;62035;52.094;5.112;2023-12-04T01:09:25;24.42;;;9.65;;
62030;SDS011;62035;52.094;5.112;2023-12-04T01:11:52;13.70;;;7.28;;
62030;SDS011;62035;52.094;5.112;2023-12-04T01:14:20;19.58;;;9.82;;
62030;SDS011;62035;52.094;5.112;2023-12-04T01:16:47;19.48;;;9.40;;
62030;SDS011;62035;52.094;5.112;2023-12-04T01:19:14;21.42;;;8.60;;
62030;SDS011;62035;52.094;5.112;2023-12-04T01:21:43;21.73;;;9.98;;
62030;SDS011;62035;52.094;5.112;2023-12-04T01:24:10;20.05;;;9.02;;
62030;SDS011;62035;52.094;5.112;2023-12-04T01:26:37;19.50;;;9.75;;
62030;SDS011;62035;52.094;5.112;2023-12-04T01:29:04;21.00;;;9.68;;
62030;SDS011;62035;52.094;5.112;2023-12-04T01:31:32;21.63;;;9.43;;
62030;SDS011;62035;52.094;5.112;2023-12-04T01:33:59;21.50;;;9.45;;
62030;SDS011;62035;52.094;5.112;2023-12-04T01:36:27;19.50;;;9.23;;
62030;SDS011;62035;52.094;5.112;2023-12-04T01:38:55;19.25;;;9.65;;
62030;SDS011;62035;52.094;5.112;2023-12-04T01:41:22;18.98;;;8.73;;
62030;SDS011;62035;52.094;5.112;2023-12-04T01:43:50;21.67;;;9.82;;
62030;SDS011;62035;52.094;5.112;2023-12-04T01:46:17;22.40;;;9.43;;
62030;SDS011;62035;52.094;5.112;2023-12-04T01:48:44;19.98;;;9.32;;
62030;SDS011;62035;52.094;5.112;2023-12-04T01:51:12;20.98;;;9.25;;
62030;SDS011;62035;52.094;5.112;2023-12-04T01:53:40;20.98;;;8.98;;
62030;SDS011;62035;52.094;5.112;2023-12-04T01:56:11;21.10;;;9.75;;
62030;SDS011;62035;52.094;5.112;2023-12-04T01:58:40;19.35;;;8.85;;
62030;SDS011;62035;52.094;5.112;2023-12-04T02:01:07;20.23;;;9.27;;
62030;SDS011;62035;52.094;5.112;2023-12-04T02:03:37;19.65;;;9.65;;
62030;SDS011;62035;52.094;5.112;2023-12-04T02:06:04;20.98;;;9.20;;
62030;SDS011;62035;52.094;5.112;2023-12-04T02:08:32;22.23;;;9.13;;
62030;SDS011;62035;52.094;5.112;2023-12-04T02:11:00;22.80;;;9.85;;
62030;SDS011;62035;52.094;5.112;2023-12-04T02:13:29;21.40;;;10.13;;
62030;SDS011;62035;52.094;5.112;2023-12-04T02:15:56;18.75;;;9.13;;
62030;SDS011;62035;52.094;5.112;2023-12-04T02:18:27;20.35;;;9.25;;
62030;SDS011;62035;52.094;5.112;2023-12-04T02:20:55;21.27;;;10.02;;
62030;SDS011;62035;52.094;5.112;2023-12-04T02:23:22;20.60;;;8.55;;
62030;SDS011;62035;52.094;5.112;2023-12-04T02:25:50;20.92;;;9.18;;
62030;SDS011;62035;52.094;5.112;2023-12-04T02:28:23;19.85;;;8.95;;
62030;SDS011;62035;52.094;5.112;2023-12-04T02:30:54;19.92;;;9.30;;
62030;SDS011;62035;52.094;5.112;2023-12-04T02:33:22;18.67;;;8.20;;
62030;SDS011;62035;52.094;5.112;2023-12-04T02:35:52;20.30;;;8.32;;
62030;SDS011;62035;52.094;5.112;2023-12-04T02:38:21;17.40;;;8.93;;
62030;SDS011;62035;52.094;5.112;2023-12-04T02:40:51;23.02;;;10.07;;
62030;SDS011;62035;52.094;5.112;2023-12-04T02:43:18;20.15;;;9.93;;
62030;SDS011;62035;52.094;5.112;2023-12-04T02:45:45;21.42;;;9.88;;
62030;SDS011;62035;52.094;5.112;2023-12-04T02:48:13;22.42;;;9.88;;
62030;SDS011;62035;52.094;5.112;2023-12-04T02:50:40;20.45;;;9.30;;
62030;SDS011;62035;52.094;5.112;2023-12-04T02:53:07;17.27;;;8.93;;
62030;SDS011;62035;52.094;5.112;2023-12-04T02:55:34;21.90;;;9.90;;
62030;SDS011;62035;52.094;5.112;2023-12-04T02:58:03;21.90;;;10.52;;
62030;SDS011;62035;52.094;5.112;2023-12-04T03:00:30;20.00;;;9.48;;
62030;SDS011;62035;52.094;5.112;2023-12-04T03:02:57;21.77;;;9.35;;
62030;SDS011;62035;52.094;5.112;2023-12-04T03:05:24;19.52;;;9.18;;
62030;SDS011;62035;52.094;5.112;2023-12-04T03:07:52;20.20;;;9.10;;
62030;SDS011;62035;52.094;5.112;2023-12-04T03:10:18;20.08;;;9.65;;
62030;SDS011;62035;52.094;5.112;2023-12-04T03:12:45;19.98;;;9.63;;
62030;SDS011;62035;52.094;5.112;2023-12-04T03:15:14;17.33;;;8.98;;
62030;SDS011;62035;52.094;5.112;2023-12-04T03:17:41;18.55;;;8.93;;
62030;SDS011;62035;52.094;5.112;2023-12-04T03:20:09;20.52;;;9.88;;
62030;SDS011;62035;52.094;5.112;2023-12-04T03:22:37;18.02;;;9.20;;
62030;SDS011;62035;52.094;5.112;2023-12-04T03:25:05;22.15;;;9.15;;
62030;SDS011;62035;52.094;5.112;2023-12-04T03:27:32;18.63;;;9.27;;
62030;SDS011;62035;52.094;5.112;2023-12-04T03:30:00;16.42;;;8.45;;
62030;SDS011;62035;52.094;5.112;2023-12-04T03:32:29;19.58;;;8.38;;
62030;SDS011;62035;52.094;5.112;2023-12-04T03:34:57;16.80;;;8.48;;
62030;SDS011;62035;52.094;5.112;2023-12-04T03:37:24;17.27;;;8.07;;
62030;SDS011;62035;52.094;5.112;2023-12-04T03:39:51;15.80;;;7.85;;
62030;SDS011;62035;52.094;5.112;2023-12-04T03:42:18;17.55;;;9.02;;
62030;SDS011;62035;52.094;5.112;2023-12-04T03:44:45;20.65;;;9.48;;
62030;SDS011;62035;52.094;5.112;2023-12-04T03:47:13;18.70;;;8.40;;
62030;SDS011;62035;52.094;5.112;2023-12-04T03:49:41;16.48;;;8.60;;
62030;SDS011;62035;52.094;5.112;2023-12-04T03:52:08;15.48;;;8.52;;
62030;SDS011;62035;52.094;5.112;2023-12-04T03:54:36;14.48;;;8.02;;
62030;SDS011;62035;52.094;5.112;2023-12-04T03:57:03;14.93;;;7.63;;
62030;SDS011;62035;52.094;5.112;2023-12-04T03:59:31;16.60;;;8.35;;
62030;SDS011;62035;52.094;5.112;2023-12-04T04:01:58;17.55;;;8.32;;
62030;SDS011;62035;52.094;5.112;2023-12-04T04:04:25;21.48;;;8.48;;
62030;SDS011;62035;52.094;5.112;2023-12-04T04:06:54;15.55;;;8.25;;
62030;SDS011;62035;52.094;5.112;2023-12-04T04:09:21;17.15;;;8.60;;
62030;SDS011;62035;52.094;5.112;2023-12-04T04:11:48;19.60;;;7.68;;
62030;SDS011;62035;52.094;5.112;2023-12-04T04:14:15;17.20;;;8.65;;
62030;SDS011;62035;52.094;5.112;2023-12-04T04:16:43;19.52;;;7.75;;
62030;SDS011;62035;52.094;5.112;2023-12-04T04:19:10;16.50;;;7.90;;
62030;SDS011;62035;52.094;5.112;2023-12-04T04:21:39;17.48;;;7.97;;
62030;SDS011;62035;52.094;5.112;2023-12-04T04:24:07;20.25;;;7.53;;
62030;SDS011;62035;52.094;5.112;2023-12-04T04:26:34;19.60;;;7.90;;
62030;SDS011;62035;52.094;5.112;2023-12-04T04:29:02;17.17;;;7.40;;
62030;SDS011;62035;52.094;5.112;2023-12-04T04:31:29;17.25;;;7.80;;
62030;SDS011;62035;52.094;5.112;2023-12-04T04:33:56;15.18;;;7.35;;
62030;SDS011;62035;52.094;5.112;2023-12-04T04:36:23;17.77;;;8.45;;
62030;SDS011;62035;52.094;5.112;2023-12-04T04:38:51;17.23;;;8.10;;
62030;SDS011;62035;52.094;5.112;2023-12-04T04:41:19;15.45;;;7.25;;
62030;SDS011;62035;52.094;5.112;2023-12-04T04:43:46;14.90;;;7.82;;
62030;SDS011;62035;52.094;5.112;2023-12-04T04:46:14;13.70;;;7.40;;
62030;SDS011;62035;52.094;5.112;2023-12-04T04:48:41;18.42;;;8.25;;
62030;SDS011;62035;52.094;5.112;2023-12-04T04:51:08;14.07;;;7.57;;
62030;SDS011;62035;52.094;5.112;2023-12-04T04:53:35;16.27;;;8.13;;
62030;SDS011;62035;52.094;5.112;2023-12-04T04:56:03;14.43;;;6.72;;
62030;SDS011;62035;52.094;5.112;2023-12-04T04:58:32;15.40;;;8.13;;
62030;SDS011;62035;52.094;5.112;2023-12-04T05:00:59;16.35;;;6.68;;
62030;SDS011;62035;52.094;5.112;2023-12-04T05:03:26;18.98;;;8.50;;
62030;SDS011;62035;52.094;5.112;2023-12-04T05:05:53;16.02;;;7.00;;
62030;SDS011;62035;52.094;5.112;2023-12-04T05:08:21;15.02;;;7.18;;
62030;SDS011;62035;52.094;5.112;2023-12-04T05:10:48;16.85;;;7.22;;
62030;SDS011;62035;52.094;5.112;2023-12-04T05:13:15;15.52;;;7.45;;
62030;SDS011;62035;52.094;5.112;2023-12-04T05:15:44;17.50;;;8.05;;
62030;SDS011;62035;52.094;5.112;2023-12-04T05:18:11;13.38;;;7.43;;
62030;SDS011;62035;52.094;5.112;2023-12-04T05:20:38;13.32;;;7.30;;
62030;SDS011;62035;52.094;5.112;2023-12-04T05:23:06;13.70;;;7.22;;
62030;SDS011;62035;52.094;5.112;2023-12-04T05:25:33;16.60;;;8.02;;
62030;SDS011;62035;52.094;5.112;2023-12-04T05:28:00;13.52;;;7.07;;
62030;SDS011;62035;52.094;5.112;2023-12-04T05:30:27;15.02;;;7.63;;
62030;SDS011;62035;52.094;5.112;2023-12-04T05:32:56;19.05;;;7.70;;
62030;SDS011;62035;52.094;5.112;2023-12-04T05:35:23;14.05;;;7.25;;
62030;SDS011;62035;52.094;5.112;2023-12-04T05:37:50;15.55;;;7.25;;
62030;SDS011;62035;52.094;5.112;2023-12-04T05:40:17;18.48;;;7.57;;
62030;SDS011;62035;52.094;5.112;2023-12-04T05:42:45;15.88;;;7.70;;
62030;SDS011;62035;52.094;5.112;2023-12-04T05:45:12;14.63;;;7.50;;
62030;SDS011;62035;52.094;5.112;2023-12-04T05:47:39;13.48;;;7.00;;
62030;SDS011;62035;52.094;5.112;2023-12-04T05:50:08;17.50;;;7.55;;
62030;SDS011;62035;52.094;5.112;2023-12-04T05:52:36;16.45;;;7.95;;
62030;SDS011;62035;52.094;5.112;2023-12-04T05:55:03;15.35;;;7.90;;
62030;SDS011;62035;52.094;5.112;2023-12-04T05:57:31;15.35;;;7.85;;
62030;SDS011;62035;52.094;5.112;2023-12-04T05:59:58;14.50;;;7.82;;
62030;SDS011;62035;52.094;5.112;2023-12-04T06:02:25;15.43;;;7.35;;
62030;SDS011;62035;52.094;5.112;2023-12-04T06:04:55;16.70;;;8.50;;
62030;SDS011;62035;52.094;5.112;2023-12-04T06:07:24;13.68;;;7.20;;
62030;SDS011;62035;52.094;5.112;2023-12-04T06:09:51;11.95;;;6.95;;
62030;SDS011;62035;52.094;5.112;2023-12-04T06:12:18;14.90;;;7.35;;
62030;SDS011;62035;52.094;5.112;2023-12-04T06:14:45;17.73;;;7.85;;
62030;SDS011;62035;52.094;5.112;2023-12-04T06:17:13;13.77;;;7.82;;
62030;SDS011;62035;52.094;5.112;2023-12-04T06:19:40;14.45;;;7.88;;
62030;SDS011;62035;52.094;5.112;2023-12-04T06:22:07;15.50;;;7.22;;
62030;SDS011;62035;52.094;5.112;2023-12-04T06:24:36;13.43;;;6.65;;
62030;SDS011;62035;52.094;5.112;2023-12-04T06:27:04;15.18;;;8.25;;
62030;SDS011;62035;52.094;5.112;2023-12-04T06:29:35;16.95;;;8.13;;
62030;SDS011;62035;52.094;5.112;2023-12-04T06:32:02;14.38;;;7.55;;
62030;SDS011;62035;52.094;5.112;2023-12-04T06:34:30;15.45;;;7.05;;
62030;SDS011;62035;52.094;5.112;2023-12-04T06:36:58;12.20;;;7.03;;
62030;SDS011;62035;52.094;5.112;2023-12-04T06:39:28;16.27;;;7.28;;
62030;SDS011;62035;52.094;5.112;2023-12-04T06:42:00;15.27;;;8.18;;
62030;SDS011;62035;52.094;5.112;2023-12-04T06:44:28;11.93;;;6.97;;
62030;SDS011;62035;52.094;5.112;2023-12-04T06:46:56;15.70;;;7.82;;
62030;SDS011;62035;52.094;5.112;2023-12-04T06:49:27;16.38;;;7.05;;
62030;SDS011;62035;52.094;5.112;2023-12-04T06:51:57;12.20;;;7.40;;
62030;SDS011;62035;52.094;5.112;2023-12-04T06:54:25;14.40;;;7.43;;
62030;SDS011;62035;52.094;5.112;2023-12-04T06:56:52;11.82;;;7.32;;
62030;SDS011;62035;52.094;5.112;2023-12-04T06:59:21;12.35;;;6.88;;
62030;SDS011;62035;52.094;5.112;2023-12-04T07:01:48;16.33;;;7.38;;
62030;SDS011;62035;52.094;5.112;2023-12-04T07:04:16;12.50;;;7.20;;
62030;SDS011;62035;52.094;5.112;2023-12-04T07:06:46;13.90;;;7.68;;
62030;SDS011;62035;52.094;5.112;2023-12-04T07:09:15;14.35;;;7.32;;
62030;SDS011;62035;52.094;5.112;2023-12-04T07:11:42;13.23;;;6.75;;
62030;SDS011;62035;52.094;5.112;2023-12-04T07:14:10;15.60;;;6.80;;
62030;SDS011;62035;52.094;5.112;2023-12-04T07:16:42;11.30;;;6.55;;
62030;SDS011;62035;52.094;5.112;2023-12-04T07:19:09;14.43;;;7.25;;
62030;SDS011;62035;52.094;5.112;2023-12-04T07:21:37;11.95;;;6.57;;
62030;SDS011;62035;52.094;5.112;2023-12-04T07:24:04;12.88;;;7.38;;
62030;SDS011;62035;52.094;5.112;2023-12-04T07:26:32;13.35;;;6.75;;
62030;SDS011;62035;52.094;5.112;2023-12-04T07:29:00;13.93;;;7.00;;
62030;SDS011;62035;52.094;5.112;2023-12-04T07:31:28;12.35;;;6.80;;
62030;SDS011;62035;52.094;5.112;2023-12-04T07:33:56;15.18;;;7.38;;
62030;SDS011;62035;52.094;5.112;2023-12-04T07:36:26;13.45;;;6.55;;
62030;SDS011;62035;52.094;5.112;2023-12-04T07:38:53;13.05;;;6.75;;
62030;SDS011;62035;52.094;5.112;2023-12-04T07:41:20;13.95;;;6.93;;
62030;SDS011;62035;52.094;5.112;2023-12-04T07:43:48;15.90;;;6.60;;
62030;SDS011;62035;52.094;5.112;2023-12-04T07:46:15;15.00;;;7.00;;
62030;SDS011;62035;52.094;5.112;2023-12-04T07:48:42;12.55;;;6.95;;
62030;SDS011;62035;52.094;5.112;2023-12-04T07:51:12;13.93;;;6.90;;
62030;SDS011;62035;52.094;5.112;2023-12-04T07:53:39;17.60;;;7.47;;
62030;SDS011;62035;52.094;5.112;2023-12-04T07:56:07;10.23;;;6.40;;
62030;SDS011;62035;52.094;5.112;2023-12-04T07:58:35;18.30;;;6.57;;
62030;SDS011;62035;52.094;5.112;2023-12-04T08:01:02;12.30;;;6.78;;
62030;SDS011;62035;52.094;5.112;2023-12-04T08:03:30;9.32;;;6.47;;
62030;SDS011;62035;52.094;5.112;2023-12-04T08:05:57;13.10;;;6.47;;
62030;SDS011;62035;52.094;5.112;2023-12-04T08:08:26;12.38;;;6.10;;
62030;SDS011;62035;52.094;5.112;2023-12-04T08:10:53;10.75;;;6.25;;
62030;SDS011;62035;52.094;5.112;2023-12-04T08:13:20;12.38;;;6.18;;
62030;SDS011;62035;52.094;5.112;2023-12-04T08:15:48;13.20;;;5.68;;
62030;SDS011;62035;52.094;5.112;2023-12-04T08:18:15;11.90;;;5.75;;
62030;SDS011;62035;52.094;5.112;2023-12-04T08:20:43;11.00;;;6.32;;
62030;SDS011;62035;52.094;5.112;2023-12-04T08:23:10;12.45;;;6.32;;
62030;SDS011;62035;52.094;5.112;2023-12-04T08:25:38;11.85;;;6.57;;
62030;SDS011;62035;52.094;5.112;2023-12-04T08:28:06;12.05;;;6.00;;
62030;SDS011;62035;52.094;5.112;2023-12-04T08:30:34;11.63;;;6.03;;
62030;SDS011;62035;52.094;5.112;2023-12-04T08:33:01;12.75;;;6.60;;
62030;SDS011;62035;52.094;5.112;2023-12-04T08:35:29;11.45;;;6.22;;
62030;SDS011;62035;52.094;5.112;2023-12-04T08:37:56;11.38;;;5.53;;
62030;SDS011;62035;52.094;5.112;2023-12-04T08:40:23;12.68;;;6.40;;
62030;SDS011;62035;52.094;5.112;2023-12-04T08:42:52;14.18;;;5.82;;
62030;SDS011;62035;52.094;5.112;2023-12-04T08:45:19;10.65;;;5.85;;
62030;SDS011;62035;52.094;5.112;2023-12-04T08:47:46;9.82;;;5.53;;
62030;SDS011;62035;52.094;5.112;2023-12-04T08:50:15;13.10;;;6.20;;
62030;SDS011;62035;52.094;5.112;2023-12-04T08:52:42;10.13;;;5.50;;
62030;SDS011;62035;52.094;5.112;2023-12-04T08:55:10;9.55;;;5.90;;
62030;SDS011;62035;52.094;5.112;2023-12-04T08:57:37;10.05;;;5.72;;
62030;SDS011;62035;52.094;5.112;2023-12-04T09:00:07;11.18;;;5.38;;
62030;SDS011;62035;52.094;5.112;2023-12-04T09:02:35;8.55;;;5.10;;
62030;SDS011;62035;52.094;5.112;2023-12-04T09:05:02;11.70;;;6.10;;
62030;SDS011;62035;52.094;5.112;2023-12-04T09:07:29;9.35;;;5.00;;
62030;SDS011;62035;52.094;5.112;2023-12-04T09:09:56;13.55;;;5.63;;
62030;SDS011;62035;52.094;5.112;2023-12-04T09:12:23;9.00;;;5.40;;
62030;SDS011;62035;52.094;5.112;2023-12-04T09:14:51;10.60;;;5.38;;
62030;SDS011;62035;52.094;5.112;2023-12-04T09:17:20;10.02;;;5.78;;
62030;SDS011;62035;52.094;5.112;2023-12-04T09:19:47;8.13;;;5.03;;
62030;SDS011;62035;52.094;5.112;2023-12-04T09:22:15;8.10;;;5.10;;
62030;SDS011;62035;52.094;5.112;2023-12-04T09:24:42;18.15;;;5.85;;
62030;SDS011;62035;52.094;5.112;2023-12-04T09:27:10;9.65;;;5.28;;
62030;SDS011;62035;52.094;5.112;2023-12-04T09:29:37;10.05;;;5.40;;
62030;SDS011;62035;52.094;5.112;2023-12-04T09:32:04;10.50;;;5.43;;
62030;SDS011;62035;52.094;5.112;2023-12-04T09:34:33;14.13;;;5.60;;
62030;SDS011;62035;52.094;5.112;2023-12-04T09:37:00;9.45;;;5.32;;
62030;SDS011;62035;52.094;5.112;2023-12-04T09:39:27;11.18;;;5.90;;
62030;SDS011;62035;52.094;5.112;2023-12-04T09:41:55;12.13;;;5.45;;
62030;SDS011;62035;52.094;5.112;2023-12-04T09:44:23;12.07;;;5.50;;
62030;SDS011;62035;52.094;5.112;2023-12-04T09:46:52;9.55;;;5.47;;
62030;SDS011;62035;52.094;5.112;2023-12-04T09:49:19;8.60;;;5.40;;
62030;SDS011;62035;52.094;5.112;2023-12-04T09:51:48;10.88;;;5.53;;
62030;SDS011;62035;52.094;5.112;2023-12-04T09:54:17;10.05;;;4.93;;
62030;SDS011;62035;52.094;5.112;2023-12-04T09:56:45;10.13;;;5.35;;
62030;SDS011;62035;52.094;5.112;2023-12-04T09:59:13;9.60;;;5.45;;
62030;SDS011;62035;52.094;5.112;2023-12-04T10:01:42;9.27;;;5.60;;
62030;SDS011;62035;52.094;5.112;2023-12-04T10:04:10;10.77;;;5.70;;
62030;SDS011;62035;52.094;5.112;2023-12-04T10:06:37;14.82;;;5.72;;
62030;SDS011;62035;52.094;5.112;2023-12-04T10:09:06;7.53;;;4.45;;
62030;SDS011;62035;52.094;5.112;2023-12-04T10:11:39;9.50;;;4.93;;
62030;SDS011;62035;52.094;5.112;2023-12-04T10:14:13;10.05;;;5.05;;
62030;SDS011;62035;52.094;5.112;2023-12-04T10:16:41;12.52;;;5.63;;
62030;SDS011;62035;52.094;5.112;2023-12-04T10:19:15;9.23;;;5.53;;
62030;SDS011;62035;52.094;5.112;2023-12-04T10:21:44;9.23;;;5.28;;
62030;SDS011;62035;52.094;5.112;2023-12-04T10:24:13;11.20;;;5.38;;
62030;SDS011;62035;52.094;5.112;2023-12-04T10:26:54;8.50;;;4.88;;
62030;SDS011;62035;52.094;5.112;2023-12-04T10:29:22;10.15;;;5.78;;
62030;SDS011;62035;52.094;5.112;2023-12-04T10:31:49;9.15;;;5.38;;
62030;SDS011;62035;52.094;5.112;2023-12-04T10:34:18;10.18;;;5.43;;
62030;SDS011;62035;52.094;5.112;2023-12-04T10:36:47;10.20;;;5.28;;
62030;SDS011;62035;52.094;5.112;2023-12-04T10:39:15;9.18;;;5.13;;
62030;SDS011;62035;52.094;5.112;2023-12-04T10:41:43;9.63;;;5.20;;
62030;SDS011;62035;52.094;5.112;2023-12-04T10:44:15;10.20;;;5.40;;
62030;SDS011;62035;52.094;5.112;2023-12-04T10:46:44;10.02;;;5.28;;
62030;SDS011;62035;52.094;5.112;2023-12-04T10:49:13;11.00;;;5.63;;
62030;SDS011;62035;52.094;5.112;2023-12-04T10:51:41;11.73;;;5.47;;
62030;SDS011;62035;52.094;5.112;2023-12-04T10:54:10;9.93;;;5.57;;
62030;SDS011;62035;52.094;5.112;2023-12-04T10:56:40;10.50;;;6.05;;
62030;SDS011;62035;52.094;5.112;2023-12-04T10:59:10;10.40;;;5.50;;
62030;SDS011;62035;52.094;5.112;2023-12-04T11:01:38;11.52;;;5.82;;
62030;SDS011;62035;52.094;5.112;2023-12-04T11:04:09;8.70;;;5.07;;
62030;SDS011;62035;52.094;5.112;2023-12-04T11:06:43;9.52;;;5.65;;
62030;SDS011;62035;52.094;5.112;2023-12-04T11:09:16;12.23;;;6.00;;
62030;SDS011;62035;52.094;5.112;2023-12-04T11:11:48;16.35;;;5.40;;
62030;SDS011;62035;52.094;5.112;2023-12-04T11:14:21;8.95;;;5.68;;
62030;SDS011;62035;52.094;5.112;2023-12-04T11:16:53;12.60;;;6.45;;
62030;SDS011;62035;52.094;5.112;2023-12-04T11:19:29;10.50;;;5.60;;
62030;SDS011;62035;52.094;5.112;2023-12-04T11:21:59;10.27;;;5.95;;
62030;SDS011;62035;52.094;5.112;2023-12-04T11:24:27;11.32;;;5.72;;
62030;SDS011;62035;52.094;5.112;2023-12-04T11:26:56;10.38;;;6.35;;
62030;SDS011;62035;52.094;5.112;2023-12-04T11:29:23;9.60;;;5.88;;
62030;SDS011;62035;52.094;5.112;2023-12-04T11:31:52;13.60;;;6.43;;
62030;SDS011;62035;52.094;5.112;2023-12-04T11:34:19;15.35;;;6.43;;
62030;SDS011;62035;52.094;5.112;2023-12-04T11:36:46;11.25;;;6.18;;
62030;SDS011;62035;52.094;5.112;2023-12-04T11:39:13;11.80;;;6.45;;
62030;SDS011;62035;52.094;5.112;2023-12-04T11:41:41;16.33;;;6.97;;
62030;SDS011;62035;52.094;5.112;2023-12-04T11:44:13;13.50;;;7.20;;
62030;SDS011;62035;52.094;5.112;2023-12-04T11:46:54;13.80;;;7.07;;
62030;SDS011;62035;52.094;5.112;2023-12-04T11:51:55;11.88;;;6.88;;
62030;SDS011;62035;52.094;5.112;2023-12-04T11:54:22;14.13;;;7.20;;
62030;SDS011;62035;52.094;5.112;2023-12-04T11:56:58;18.45;;;8.77;;
62030;SDS011;62035;52.094;5.112;2023-12-04T11:59:28;22.58;;;10.95;;
62030;SDS011;62035;52.094;5.112;2023-12-04T12:01:56;14.93;;;7.00;;
62030;SDS011;62035;52.094;5.112;2023-12-04T12:04:25;18.15;;;9.35;;
62030;SDS011;62035;52.094;5.112;2023-12-04T12:06:53;13.85;;;8.10;;
62030;SDS011;62035;52.094;5.112;2023-12-04T12:09:21;14.13;;;8.05;;
62030;SDS011;62035;52.094;5.112;2023-12-04T12:11:49;19.08;;;10.52;;
62030;SDS011;62035;52.094;5.112;2023-12-04T12:14:19;17.25;;;9.23;;
62030;SDS011;62035;52.094;5.112;2023-12-04T12:16:49;18.23;;;9.68;;
62030;SDS011;62035;52.094;5.112;2023-12-04T12:19:16;15.70;;;8.07;;
62030;SDS011;62035;52.094;5.112;2023-12-04T12:21:45;22.50;;;10.13;;
62030;SDS011;62035;52.094;5.112;2023-12-04T12:24:14;15.60;;;8.20;;
62030;SDS011;62035;52.094;5.112;2023-12-04T12:26:42;17.13;;;9.05;;
62030;SDS011;62035;52.094;5.112;2023-12-04T12:29:10;18.35;;;9.30;;
62030;SDS011;62035;52.094;5.112;2023-12-04T12:31:37;16.48;;;7.85;;
62030;SDS011;62035;52.094;5.112;2023-12-04T12:34:06;17.27;;;9.25;;
62030;SDS011;62035;52.094;5.112;2023-12-04T12:36:34;14.38;;;8.07;;
62030;SDS011;62035;52.094;5.112;2023-12-04T12:39:01;11.88;;;6.45;;
62030;SDS011;62035;52.094;5.112;2023-12-04T12:41:30;13.98;;;7.75;;
62030;SDS011;62035;52.094;5.112;2023-12-04T12:43:57;15.15;;;8.48;;
62030;SDS011;62035;52.094;5.112;2023-12-04T12:46:25;13.73;;;7.38;;
62030;SDS011;62035;52.094;5.112;2023-12-04T12:48:52;14.38;;;7.55;;
62030;SDS011;62035;52.094;5.112;2023-12-04T12:51:21;13.98;;;7.82;;
62030;SDS011;62035;52.094;5.112;2023-12-04T12:53:50;15.98;;;8.32;;
62030;SDS011;62035;52.094;5.112;2023-12-04T12:56:17;11.32;;;6.45;;
62030;SDS011;62035;52.094;5.112;2023-12-04T12:58:44;12.40;;;7.43;;
62030;SDS011;62035;52.094;5.112;2023-12-04T13:01:12;12.88;;;7.40;;
62030;SDS011;62035;52.094;5.112;2023-12-04T13:03:39;16.00;;;7.45;;
62030;SDS011;62035;52.094;5.112;2023-12-04T13:06:08;13.68;;;7.55;;
62030;SDS011;62035;52.094;5.112;2023-12-04T13:08:37;13.10;;;7.28;;
62030;SDS011;62035;52.094;5.112;2023-12-04T13:11:04;15.13;;;7.32;;
62030;SDS011;62035;52.094;5.112;2023-12-04T13:13:31;15.23;;;8.02;;
62030;SDS011;62035;52.094;5.112;2023-12-04T13:15:59;13.77;;;7.53;;
62030;SDS011;62035;52.094;5.112;2023-12-04T13:18:26;12.05;;;7.03;;
62030;SDS011;62035;52.094;5.112;2023-12-04T13:20:53;30.98;;;8.48;;
62030;SDS011;62035;52.094;5.112;2023-12-04T13:23:20;11.50;;;6.97;;
62030;SDS011;62035;52.094;5.112;2023-12-04T13:25:51;16.42;;;7.65;;
62030;SDS011;62035;52.094;5.112;2023-12-04T13:28:20;15.02;;;6.90;;
62030;SDS011;62035;52.094;5.112;2023-12-04T13:30:47;14.00;;;7.68;;
62030;SDS011;62035;52.094;5.112;2023-12-04T13:33:15;13.93;;;6.88;;
62030;SDS011;62035;52.094;5.112;2023-12-04T13:35:42;15.20;;;7.07;;
62030;SDS011;62035;52.094;5.112;2023-12-04T13:38:09;16.42;;;7.75;;
62030;SDS011;62035;52.094;5.112;2023-12-04T13:40:38;14.90;;;7.47;;
62030;SDS011;62035;52.094;5.112;2023-12-04T13:43:07;15.23;;;7.90;;
62030;SDS011;62035;52.094;5.112;2023-12-04T13:45:52;18.67;;;7.85;;
62030;SDS011;62035;52.094;5.112;2023-12-04T13:48:20;15.65;;;7.05;;
62030;SDS011;62035;52.094;5.112;2023-12-04T13:50:47;13.35;;;7.22;;
62030;SDS011;62035;52.094;5.112;2023-12-04T13:53:15;14.70;;;7.55;;
62030;SDS011;62035;52.094;5.112;2023-12-04T13:55:49;16.42;;;8.73;;
62030;SDS011;62035;52.094;5.112;2023-12-04T13:58:38;18.08;;;8.10;;
62030;SDS011;62035;52.094;5.112;2023-12-04T14:01:09;15.25;;;7.15;;
62030;SDS011;62035;52.094;5.112;2023-12-04T14:03:43;13.48;;;7.35;;
62030;SDS011;62035;52.094;5.112;2023-12-04T14:06:11;13.65;;;7.30;;
62030;SDS011;62035;52.094;5.112;2023-12-04T14:08:38;13.52;;;6.90;;
62030;SDS011;62035;52.094;5.112;2023-12-04T14:11:06;13.40;;;7.70;;
62030;SDS011;62035;52.094;5.112;2023-12-04T14:13:34;14.48;;;7.28;;
62030;SDS011;62035;52.094;5.112;2023-12-04T14:16:04;13.27;;;6.55;;
62030;SDS011;62035;52.094;5.112;2023-12-04T14:18:31;15.90;;;7.40;;
62030;SDS011;62035;52.094;5.112;2023-12-04T14:20:59;11.68;;;6.78;;
62030;SDS011;62035;52.094;5.112;2023-12-04T14:23:27;13.40;;;7.10;;
62030;SDS011;62035;52.094;5.112;2023-12-04T14:25:54;13.15;;;7.32;;
62030;SDS011;62035;52.094;5.112;2023-12-04T14:28:21;11.15;;;6.22;;
62030;SDS011;62035;52.094;5.112;2023-12-04T14:30:49;15.70;;;7.07;;
62030;SDS011;62035;52.094;5.112;2023-12-04T14:33:18;14.88;;;7.68;;
62030;SDS011;62035;52.094;5.112;2023-12-04T14:35:45;12.95;;;7.10;;
62030;SDS011;62035;52.094;5.112;2023-12-04T14:38:12;13.98;;;6.80;;
62030;SDS011;62035;52.094;5.112;2023-12-04T14:40:40;14.07;;;7.47;;
62030;SDS011;62035;52.094;5.112;2023-12-04T14:43:07;13.52;;;7.38;;